MSC Federica — HPQE — position and weather

sailwx.info

Track history (hours):
 
Tides and Currents Weather Stations Pressure Air Temp Water Temp Dewpoint Dewpoint Depression Visibility Wind Speed Wind Dir Waves Ship Positions

MSC Federica

Last reported at 2015-Dec-29 21:29 UTC. Time now 2016-Feb-10 02:45 UTC.
Position N 26°19' W 079°23'.
Warning: this ship's position is 42 days out of date.

Length 294 m; draft 9.4 m.

Type: Cargo ship. MMSI: 357363000.

Date/timePositionNaut miles runAvg speedWind from/ knotsBaromVisibWave heightAir tempDewpointWater temp
2015-Dec-29 21:29N 26°19' W 079°23'1718.2
2015-Dec-29 20:33N 26°15' W 079°41'1919.1
2015-Dec-29 19:33N 26°07' W 080°00'7 6.6
2015-Dec-29 18:33N 26°04' W 080°07'0 0.0
2015-Dec-29 17:32N 26°04' W 080°07'0 0.0
2015-Dec-29 16:32N 26°04' W 080°07'0 0.0
2015-Dec-29 15:32N 26°04' W 080°07'0 0.0
2015-Dec-29 14:32N 26°04' W 080°07'0 0.0
2015-Dec-29 13:32N 26°04' W 080°07'0 0.1
2015-Dec-29 12:33N 26°04' W 080°07'4 4.2
2015-Dec-29 11:33N 26°06' W 080°02'10 9.5
2015-Dec-29 10:33N 26°09' W 079°53'1010.4
2015-Dec-29 09:33N 26°20' W 079°50'1414.4
2015-Dec-29 08:33N 26°34' W 079°48'1414.3
2015-Dec-29 07:33N 26°48' W 079°46'  
2015-Dec-24 20:32N 39°38' W 073°54'1616.4
2015-Dec-24 19:34N 39°53' W 073°51'3411.3
2015-Dec-24 16:33N 40°27' W 073°50'1110.9
2015-Dec-24 15:33N 40°33' W 074°02'8 7.9
2015-Dec-24 14:33N 40°39' W 074°09'2 1.8
2015-Dec-24 13:33N 40°41' W 074°09'0 0.0
2015-Dec-24 12:33N 40°41' W 074°09'0 0.0
2015-Dec-24 11:30N 40°41' W 074°09'0 0.0
2015-Dec-24 10:33N 40°41' W 074°09'0 0.0
2015-Dec-24 09:33N 40°41' W 074°09'0 0.0
2015-Dec-24 08:33N 40°41' W 074°09'0 0.0
2015-Dec-24 07:30N 40°41' W 074°09'0 0.0
2015-Dec-24 06:33N 40°41' W 074°09'0 0.0
2015-Dec-24 05:33N 40°41' W 074°09'0 0.0
2015-Dec-24 04:33N 40°41' W 074°09'0 0.0
2015-Dec-24 03:33N 40°41' W 074°09'0 0.0
2015-Dec-24 02:33N 40°41' W 074°09'0 0.0
2015-Dec-24 01:30N 40°41' W 074°09'0 0.0
2015-Dec-24 00:33N 40°41' W 074°09'0 0.0
2015-Dec-23 23:33N 40°41' W 074°09'0 0.0
2015-Dec-23 22:33N 40°41' W 074°09'0 0.0
2015-Dec-23 21:33N 40°41' W 074°09'0 0.0
2015-Dec-23 20:33N 40°41' W 074°09'0 0.0
2015-Dec-23 19:33N 40°41' W 074°09'0 0.0
2015-Dec-23 18:33N 40°41' W 074°09'0 0.0
2015-Dec-23 17:33N 40°41' W 074°09'0 0.2
2015-Dec-23 16:33N 40°41' W 074°09'0 0.0
2015-Dec-23 15:33N 40°41' W 074°09'0 0.0
2015-Dec-23 14:33N 40°41' W 074°09'0 0.0
2015-Dec-23 13:30N 40°41' W 074°09'0 0.0
2015-Dec-23 12:33N 40°41' W 074°09'0 0.0
2015-Dec-23 11:33N 40°41' W 074°09'0 0.0
2015-Dec-23 10:33N 40°41' W 074°09'0 0.0
2015-Dec-23 09:33N 40°41' W 074°09'0 0.0
2015-Dec-23 08:33N 40°41' W 074°09'0 0.0
2015-Dec-23 07:33N 40°41' W 074°09'0 0.0
2015-Dec-23 06:33N 40°41' W 074°09'0 0.0
2015-Dec-23 05:33N 40°41' W 074°09'0 0.0
2015-Dec-23 04:33N 40°41' W 074°09'0 0.0
2015-Dec-23 03:33N 40°41' W 074°09'1 1.3
2015-Dec-23 02:34N 40°40' W 074°08'4 4.2
2015-Dec-23 01:33N 40°38' W 074°03'8 8.0
2015-Dec-23 00:34N 40°31' W 073°59'9 9.0
2015-Dec-22 23:33N 40°27' W 073°49'21 6.5
2015-Dec-22 20:23N 40°07' W 073°43'9 2.9
2015-Dec-22 17:19N 39°58' W 073°42'7 8.5
2015-Dec-22 16:30N 39°51' W 073°41'9 9.3
2015-Dec-22 15:34N 39°42' W 073°39'1515.4
2015-Dec-22 14:33N 39°28' W 073°48'1918.3
2015-Dec-22 13:32N 39°14' W 074°04'1818.5
2015-Dec-22 12:33N 38°60' W 074°19'1212.1
2015-Dec-22 11:33N 38°50' W 074°28'9 8.9
2015-Dec-22 10:32N 38°46' W 074°38'9 9.4
2015-Dec-22 09:33N 38°46' W 074°50'9 8.9
2015-Dec-22 08:33N 38°46' W 075°01'8 7.9
2015-Dec-22 07:33N 38°53' W 075°05'1413.9
2015-Dec-22 06:34N 39°06' W 075°12'1616.1
2015-Dec-22 05:34N 39°19' W 075°24'1515.3
2015-Dec-22 04:34N 39°33' W 075°33'1312.7
2015-Dec-22 03:33N 39°46' W 075°29'1111.0
2015-Dec-22 02:33N 39°51' W 075°16'7 7.1
2015-Dec-22 01:33N 39°54' W 075°08'0 0.0
2015-Dec-22 00:32N 39°54' W 075°08'0 0.0
2015-Dec-21 23:32N 39°54' W 075°08'0 0.0
2015-Dec-21 22:32N 39°54' W 075°08'0 0.0
2015-Dec-21 21:32N 39°54' W 075°08'0 0.0
2015-Dec-21 20:32N 39°54' W 075°08'0 0.0
2015-Dec-21 19:32N 39°54' W 075°08'0 0.0
2015-Dec-21 18:32N 39°54' W 075°08'0 0.0
2015-Dec-21 17:32N 39°54' W 075°08'0 0.0
2015-Dec-21 16:32N 39°54' W 075°08'0 0.0
2015-Dec-21 15:32N 39°54' W 075°08'0 0.0
2015-Dec-21 14:32N 39°54' W 075°08'0 0.0
2015-Dec-21 13:32N 39°54' W 075°08'0 0.0
2015-Dec-21 12:32N 39°54' W 075°08'0 0.0
2015-Dec-21 11:32N 39°54' W 075°08'0 0.1
2015-Dec-21 10:34N 39°54' W 075°08'6 5.9
2015-Dec-21 09:33N 39°51' W 075°15'9 8.9
2015-Dec-21 08:34N 39°48' W 075°26'1312.7
2015-Dec-21 07:33N 39°37' W 075°35'1413.8
2015-Dec-21 06:33N 39°24' W 075°30'1616.2
2015-Dec-21 05:33N 39°11' W 075°17'1615.8
2015-Dec-21 04:33N 38°58' W 075°07'1211.6
2015-Dec-21 03:33N 38°47' W 075°01'7 7.1
2015-Dec-21 02:33N 38°42' W 074°54'7 7.0
2015-Dec-21 01:33N 38°37' W 074°49'7 6.9
2015-Dec-21 00:33N 38°31' W 074°43'7 6.7
2015-Dec-20 23:33N 38°26' W 074°38'  
Track history (hours):
 
Tides and Currents Weather Stations Pressure Air Temp Water Temp Dewpoint Dewpoint Depression Visibility Wind Speed Wind Dir Waves Ship Positions

MSC Federica

Last reported at 2015-Dec-29 21:29 UTC. Time now 2016-Feb-10 02:45 UTC.
Position N 26°19' W 079°23'.
Warning: this ship's position is 42 days out of date.

Length 294 m; draft 9.4 m.

Type: Cargo ship. MMSI: 357363000.

Date/timePositionNaut miles runAvg speedWind from/ knotsBaromVisibWave heightAir tempDewpointWater temp
2015-Dec-29 21:29N 26°19' W 079°23'1718.2
2015-Dec-29 20:33N 26°15' W 079°41'1919.1
2015-Dec-29 19:33N 26°07' W 080°00'7 6.6
2015-Dec-29 18:33N 26°04' W 080°07'0 0.0
2015-Dec-29 17:32N 26°04' W 080°07'0 0.0
2015-Dec-29 16:32N 26°04' W 080°07'0 0.0
2015-Dec-29 15:32N 26°04' W 080°07'0 0.0
2015-Dec-29 14:32N 26°04' W 080°07'0 0.0
2015-Dec-29 13:32N 26°04' W 080°07'0 0.1
2015-Dec-29 12:33N 26°04' W 080°07'4 4.2
2015-Dec-29 11:33N 26°06' W 080°02'10 9.5
2015-Dec-29 10:33N 26°09' W 079°53'1010.4
2015-Dec-29 09:33N 26°20' W 079°50'1414.4
2015-Dec-29 08:33N 26°34' W 079°48'1414.3
2015-Dec-29 07:33N 26°48' W 079°46'  
2015-Dec-24 20:32N 39°38' W 073°54'1616.4
2015-Dec-24 19:34N 39°53' W 073°51'3411.3
2015-Dec-24 16:33N 40°27' W 073°50'1110.9
2015-Dec-24 15:33N 40°33' W 074°02'8 7.9
2015-Dec-24 14:33N 40°39' W 074°09'2 1.8
2015-Dec-24 13:33N 40°41' W 074°09'0 0.0
2015-Dec-24 12:33N 40°41' W 074°09'0 0.0
2015-Dec-24 11:30N 40°41' W 074°09'0 0.0
2015-Dec-24 10:33N 40°41' W 074°09'0 0.0
2015-Dec-24 09:33N 40°41' W 074°09'0 0.0
2015-Dec-24 08:33N 40°41' W 074°09'0 0.0
2015-Dec-24 07:30N 40°41' W 074°09'0 0.0
2015-Dec-24 06:33N 40°41' W 074°09'0 0.0
2015-Dec-24 05:33N 40°41' W 074°09'0 0.0
2015-Dec-24 04:33N 40°41' W 074°09'0 0.0
2015-Dec-24 03:33N 40°41' W 074°09'0 0.0
2015-Dec-24 02:33N 40°41' W 074°09'0 0.0
2015-Dec-24 01:30N 40°41' W 074°09'0 0.0
2015-Dec-24 00:33N 40°41' W 074°09'0 0.0
2015-Dec-23 23:33N 40°41' W 074°09'0 0.0
2015-Dec-23 22:33N 40°41' W 074°09'0 0.0
2015-Dec-23 21:33N 40°41' W 074°09'0 0.0
2015-Dec-23 20:33N 40°41' W 074°09'0 0.0
2015-Dec-23 19:33N 40°41' W 074°09'0 0.0
2015-Dec-23 18:33N 40°41' W 074°09'0 0.0
2015-Dec-23 17:33N 40°41' W 074°09'0 0.2
2015-Dec-23 16:33N 40°41' W 074°09'0 0.0
2015-Dec-23 15:33N 40°41' W 074°09'0 0.0
2015-Dec-23 14:33N 40°41' W 074°09'0 0.0
2015-Dec-23 13:30N 40°41' W 074°09'0 0.0
2015-Dec-23 12:33N 40°41' W 074°09'0 0.0
2015-Dec-23 11:33N 40°41' W 074°09'0 0.0
2015-Dec-23 10:33N 40°41' W 074°09'0 0.0
2015-Dec-23 09:33N 40°41' W 074°09'0 0.0
2015-Dec-23 08:33N 40°41' W 074°09'0 0.0
2015-Dec-23 07:33N 40°41' W 074°09'0 0.0
2015-Dec-23 06:33N 40°41' W 074°09'0 0.0
2015-Dec-23 05:33N 40°41' W 074°09'0 0.0
2015-Dec-23 04:33N 40°41' W 074°09'0 0.0
2015-Dec-23 03:33N 40°41' W 074°09'1 1.3
2015-Dec-23 02:34N 40°40' W 074°08'4 4.2
2015-Dec-23 01:33N 40°38' W 074°03'8 8.0
2015-Dec-23 00:34N 40°31' W 073°59'9 9.0
2015-Dec-22 23:33N 40°27' W 073°49'21 6.5
2015-Dec-22 20:23N 40°07' W 073°43'9 2.9
2015-Dec-22 17:19N 39°58' W 073°42'7 8.5
2015-Dec-22 16:30N 39°51' W 073°41'9 9.3
2015-Dec-22 15:34N 39°42' W 073°39'1515.4
2015-Dec-22 14:33N 39°28' W 073°48'1918.3
2015-Dec-22 13:32N 39°14' W 074°04'1818.5
2015-Dec-22 12:33N 38°60' W 074°19'1212.1
2015-Dec-22 11:33N 38°50' W 074°28'9 8.9
2015-Dec-22 10:32N 38°46' W 074°38'9 9.4
2015-Dec-22 09:33N 38°46' W 074°50'9 8.9
2015-Dec-22 08:33N 38°46' W 075°01'8 7.9
2015-Dec-22 07:33N 38°53' W 075°05'1413.9
2015-Dec-22 06:34N 39°06' W 075°12'1616.1
2015-Dec-22 05:34N 39°19' W 075°24'1515.3
2015-Dec-22 04:34N 39°33' W 075°33'1312.7
2015-Dec-22 03:33N 39°46' W 075°29'1111.0
2015-Dec-22 02:33N 39°51' W 075°16'7 7.1
2015-Dec-22 01:33N 39°54' W 075°08'0 0.0
2015-Dec-22 00:32N 39°54' W 075°08'0 0.0
2015-Dec-21 23:32N 39°54' W 075°08'0 0.0
2015-Dec-21 22:32N 39°54' W 075°08'0 0.0
2015-Dec-21 21:32N 39°54' W 075°08'0 0.0
2015-Dec-21 20:32N 39°54' W 075°08'0 0.0
2015-Dec-21 19:32N 39°54' W 075°08'0 0.0
2015-Dec-21 18:32N 39°54' W 075°08'0 0.0
2015-Dec-21 17:32N 39°54' W 075°08'0 0.0
2015-Dec-21 16:32N 39°54' W 075°08'0 0.0
2015-Dec-21 15:32N 39°54' W 075°08'0 0.0
2015-Dec-21 14:32N 39°54' W 075°08'0 0.0
2015-Dec-21 13:32N 39°54' W 075°08'0 0.0
2015-Dec-21 12:32N 39°54' W 075°08'0 0.0
2015-Dec-21 11:32N 39°54' W 075°08'0 0.1
2015-Dec-21 10:34N 39°54' W 075°08'6 5.9
2015-Dec-21 09:33N 39°51' W 075°15'9 8.9
2015-Dec-21 08:34N 39°48' W 075°26'1312.7
2015-Dec-21 07:33N 39°37' W 075°35'1413.8
2015-Dec-21 06:33N 39°24' W 075°30'1616.2
2015-Dec-21 05:33N 39°11' W 075°17'1615.8
2015-Dec-21 04:33N 38°58' W 075°07'1211.6
2015-Dec-21 03:33N 38°47' W 075°01'7 7.1
2015-Dec-21 02:33N 38°42' W 074°54'7 7.0
2015-Dec-21 01:33N 38°37' W 074°49'7 6.9
2015-Dec-21 00:33N 38°31' W 074°43'7 6.7
2015-Dec-20 23:33N 38°26' W 074°38'  

Dump ship's entire track history